Time;durP1;ratioP1;P1;durP2;ratioP2;P2;SDS_P1;SDS_P2;PMS_P1;PMS_P2;Temp;Humidity;BMP_temperature;BMP_pressure;BME280_temperature;BME280_humidity;BME280_pressure;Samples;Min_cycle;Max_cycle;Signal;HPM_P1;HPM_P2
2022/02/17 05:01:24;;;;;;;0.63;0.37;;;12.50;99.90;;;;;;5521811;23;20490;-67
2022/02/17 05:03:51;;;;;;;2.63;0.40;;;12.50;99.90;;;;;;4979156;28;20458;-67
2022/02/17 05:06:17;;;;;;;0.53;0.30;;;12.40;99.90;;;;;;4978789;28;20451;-66
2022/02/17 05:08:44;;;;;;;0.20;0.20;;;12.40;99.90;;;;;;4979333;28;20502;-67
2022/02/17 05:11:11;;;;;;;0.37;0.30;;;12.30;99.90;;;;;;4979195;28;20493;-67
2022/02/17 05:13:37;;;;;;;0.37;0.37;;;12.30;99.90;;;;;;4979568;28;20447;-68
2022/02/17 05:16:05;;;;;;;1.80;0.30;;;12.30;99.90;;;;;;4981302;28;20457;-68
2022/02/17 05:18:33;;;;;;;1.80;0.50;;;12.30;99.90;;;;;;4983830;28;20450;-67
2022/02/17 05:20:59;;;;;;;0.80;0.30;;;12.30;99.90;;;;;;4982146;28;20479;-67
2022/02/17 05:23:26;;;;;;;0.90;0.40;;;12.30;99.90;;;;;;4981016;28;20459;-67
2022/02/17 05:25:53;;;;;;;0.37;0.37;;;12.30;99.90;;;;;;4980818;28;20462;-67
2022/02/17 05:28:19;;;;;;;0.77;0.40;;;12.20;99.90;;;;;;4979741;28;20463;-67
2022/02/17 05:30:47;;;;;;;0.20;0.20;;;12.20;99.90;;;;;;4980218;28;20471;-67
2022/02/17 05:33:15;;;;;;;1.23;0.50;;;12.10;99.90;;;;;;4981452;28;20455;-68
2022/02/17 05:35:44;;;;;;;1.13;0.40;;;12.10;99.90;;;;;;4981846;28;20459;-68
2022/02/17 05:38:11;;;;;;;1.13;0.60;;;12.10;99.90;;;;;;4986586;28;20459;-67
2022/02/17 05:40:38;;;;;;;1.70;0.40;;;12.10;99.90;;;;;;4982371;28;20479;-67
2022/02/17 05:43:06;;;;;;;0.63;0.50;;;12.00;99.90;;;;;;4978300;28;20458;-66
2022/02/17 05:45:33;;;;;;;2.97;0.87;;;11.90;99.90;;;;;;4978398;28;20481;-67
2022/02/17 05:48:00;;;;;;;3.47;0.77;;;11.80;99.90;;;;;;4978692;28;20440;-67
2022/02/17 05:50:27;;;;;;;3.83;1.50;;;11.60;99.90;;;;;;4977478;28;20802;-69
2022/02/17 05:52:55;;;;;;;2.50;1.10;;;11.40;99.90;;;;;;4977946;28;20446;-67
2022/02/17 05:55:22;;;;;;;7.07;1.60;;;11.30;99.90;;;;;;4977413;28;20455;-67
2022/02/17 05:57:49;;;;;;;7.43;1.40;;;11.20;99.90;;;;;;4978746;28;20450;-66
2022/02/17 06:00:17;;;;;;;4.10;1.60;;;11.10;99.90;;;;;;4978419;28;20471;-66
2022/02/17 06:02:44;;;;;;;2.90;1.80;;;11.00;99.90;;;;;;4978771;28;20467;-67
2022/02/17 06:05:12;;;;;;;10.80;1.93;;;10.90;99.90;;;;;;4978515;28;20459;-67
2022/02/17 06:07:39;;;;;;;5.13;1.43;;;10.80;99.90;;;;;;4978571;28;20451;-67
2022/02/17 06:10:09;;;;;;;8.43;2.70;;;10.70;99.90;;;;;;4979042;28;20459;-66
2022/02/17 06:12:41;;;;;;;6.63;2.27;;;10.70;99.90;;;;;;4981504;28;20474;-67
2022/02/17 06:15:09;;;;;;;7.83;1.93;;;10.70;99.90;;;;;;4979174;28;20439;-67
2022/02/17 06:17:36;;;;;;;7.17;1.90;;;10.70;99.90;;;;;;4977719;28;20942;-68
2022/02/17 06:20:03;;;;;;;3.83;1.90;;;10.70;99.90;;;;;;4979643;28;20451;-68
2022/02/17 06:22:30;;;;;;;7.97;1.77;;;10.70;99.90;;;;;;4977332;28;20498;-67
2022/02/17 06:24:56;;;;;;;7.20;2.33;;;10.70;99.90;;;;;;4977220;28;20459;-66
2022/02/17 06:27:24;;;;;;;6.10;2.10;;;10.70;99.90;;;;;;4979152;28;20549;-67
2022/02/17 06:29:51;;;;;;;5.80;1.60;;;10.70;99.90;;;;;;4977424;28;20458;-66
2022/02/17 06:32:18;;;;;;;4.60;2.67;;;10.60;99.90;;;;;;4978360;28;20482;-67
2022/02/17 06:34:45;;;;;;;6.70;2.33;;;10.60;99.90;;;;;;4977907;28;20459;-66
2022/02/17 06:37:12;;;;;;;7.43;2.47;;;10.60;99.90;;;;;;4977115;28;20463;-67
2022/02/17 06:39:38;;;;;;;8.87;3.23;;;10.70;99.90;;;;;;4977143;28;20462;-68
2022/02/17 06:42:06;;;;;;;6.23;2.10;;;10.70;99.90;;;;;;4977500;28;20486;-67
2022/02/17 06:44:34;;;;;;;4.97;1.90;;;10.70;99.90;;;;;;4979040;28;20459;-67
2022/02/17 06:47:01;;;;;;;3.73;1.73;;;10.70;99.90;;;;;;4977704;28;20478;-66
2022/02/17 06:49:29;;;;;;;11.50;2.17;;;10.70;99.90;;;;;;4981821;28;20530;-68
2022/02/17 06:51:57;;;;;;;8.33;2.00;;;10.80;99.90;;;;;;4984210;28;20466;-67
2022/02/17 06:54:24;;;;;;;6.33;2.87;;;10.80;99.90;;;;;;4985105;28;20493;-67
2022/02/17 06:56:52;;;;;;;11.73;2.20;;;10.90;99.90;;;;;;4983803;28;20462;-67
2022/02/17 06:59:18;;;;;;;12.83;2.20;;;10.90;99.90;;;;;;4977826;28;20451;-66
2022/02/17 07:01:46;;;;;;;4.47;1.47;;;10.90;99.90;;;;;;4977439;28;20513;-67
2022/02/17 07:04:13;;;;;;;6.87;2.00;;;10.90;99.90;;;;;;4978781;28;20459;-67
2022/02/17 07:06:40;;;;;;;6.77;2.20;;;11.00;99.90;;;;;;4981385;28;20463;-67
2022/02/17 07:09:06;;;;;;;5.63;2.00;;;11.10;99.90;;;;;;4982518;28;20451;-67
2022/02/17 07:11:33;;;;;;;6.40;1.73;;;11.20;99.90;;;;;;4982967;28;20467;-68
2022/02/17 07:14:00;;;;;;;6.67;1.63;;;11.20;99.90;;;;;;4983460;28;20486;-67
2022/02/17 07:16:27;;;;;;;6.77;2.40;;;11.30;99.90;;;;;;4986967;28;20483;-67
2022/02/17 07:18:55;;;;;;;11.67;2.40;;;11.30;99.90;;;;;;4982452;28;21123;-68
2022/02/17 07:21:21;;;;;;;8.43;2.30;;;11.30;99.90;;;;;;4979290;28;20493;-66
2022/02/17 07:23:48;;;;;;;10.33;2.87;;;11.40;99.90;;;;;;4978018;28;20455;-67
2022/02/17 07:26:15;;;;;;;12.03;2.93;;;11.40;99.90;;;;;;4977351;28;20897;-67
2022/02/17 07:28:41;;;;;;;4.80;2.00;;;11.50;99.90;;;;;;4978080;28;20477;-67
2022/02/17 07:31:09;;;;;;;7.07;3.03;;;11.70;99.90;;;;;;4977744;28;20489;-67
2022/02/17 07:33:35;;;;;;;7.53;2.60;;;12.00;99.90;;;;;;4977142;28;20482;-67
2022/02/17 07:36:06;;;;;;;8.40;2.20;;;11.90;99.90;;;;;;4977384;28;20458;-67
2022/02/17 07:38:33;;;;;;;8.50;2.10;;;11.90;99.90;;;;;;4977869;28;20443;-67
2022/02/17 07:40:59;;;;;;;6.73;2.47;;;11.80;99.90;;;;;;4976965;28;20470;-67
2022/02/17 07:43:27;;;;;;;7.63;2.33;;;11.60;99.90;;;;;;4978903;28;20479;-68
2022/02/17 07:45:54;;;;;;;5.73;2.07;;;11.60;99.90;;;;;;4980302;28;20454;-67
2022/02/17 07:48:21;;;;;;;7.40;2.50;;;11.50;99.90;;;;;;4977510;28;20454;-68
2022/02/17 07:50:48;;;;;;;9.07;2.30;;;11.40;99.90;;;;;;4977278;28;20478;-67
2022/02/17 07:53:16;;;;;;;8.60;2.33;;;11.40;99.90;;;;;;4977046;28;20455;-66
2022/02/17 07:55:42;;;;;;;12.60;3.40;;;11.30;99.90;;;;;;4978459;28;20454;-68
2022/02/17 07:58:14;;;;;;;5.20;2.40;;;11.40;99.90;;;;;;4978048;28;20454;-67
2022/02/17 08:00:41;;;;;;;5.93;2.17;;;11.40;99.90;;;;;;4981051;28;20498;-67
2022/02/17 08:03:10;;;;;;;4.60;1.70;;;11.70;99.90;;;;;;4981490;28;20831;-68
2022/02/17 08:05:38;;;;;;;9.07;2.20;;;12.80;99.90;;;;;;4979614;28;20490;-68
2022/02/17 08:08:05;;;;;;;8.07;2.70;;;13.90;99.90;;;;;;4979018;28;20494;-68
2022/02/17 08:10:34;;;;;;;7.63;2.60;;;14.90;99.90;;;;;;4979198;28;20479;-68
2022/02/17 08:13:02;;;;;;;5.27;2.50;;;15.40;99.90;;;;;;4991531;28;20454;-68
2022/02/17 08:15:28;;;;;;;5.80;2.70;;;16.10;99.90;;;;;;4985366;28;20458;-67
2022/02/17 08:17:55;;;;;;;5.63;1.93;;;16.70;99.90;;;;;;4978878;28;20470;-68
2022/02/17 08:20:22;;;;;;;5.17;2.90;;;17.30;99.90;;;;;;4978627;28;20467;-68
2022/02/17 08:22:49;;;;;;;5.47;2.13;;;17.70;99.90;;;;;;4979203;28;20478;-67
2022/02/17 08:25:17;;;;;;;6.67;2.07;;;18.40;99.90;;;;;;4979020;28;20942;-69
2022/02/17 08:27:45;;;;;;;7.33;2.43;;;18.30;99.40;;;;;;4979284;28;20481;-68
2022/02/17 08:30:12;;;;;;;6.10;2.30;;;18.10;99.90;;;;;;4979170;28;20486;-69
2022/02/17 08:32:39;;;;;;;5.60;2.20;;;17.80;99.90;;;;;;4978608;28;20521;-67
2022/02/17 08:35:08;;;;;;;8.70;2.43;;;17.70;99.90;;;;;;4978813;28;20461;-69
2022/02/17 08:37:35;;;;;;;5.00;2.20;;;17.40;99.90;;;;;;4978491;28;20463;-67
2022/02/17 08:40:01;;;;;;;4.00;2.10;;;17.40;99.90;;;;;;4978911;28;20454;-68
2022/02/17 08:42:28;;;;;;;7.13;2.10;;;17.60;99.90;;;;;;4979286;28;20510;-69
2022/02/17 08:44:56;;;;;;;6.80;2.33;;;18.00;98.80;;;;;;4979779;28;20514;-67
2022/02/17 08:47:23;;;;;;;6.30;2.27;;;18.20;97.50;;;;;;4978814;28;20454;-68
2022/02/17 08:49:50;;;;;;;7.20;2.87;;;18.30;95.50;;;;;;4977905;28;20455;-69
2022/02/17 08:52:17;;;;;;;7.23;2.40;;;18.70;94.80;;;;;;4977739;28;20930;-68
2022/02/17 08:54:44;;;;;;;10.40;5.00;;;19.10;93.90;;;;;;4977802;28;20458;-67
2022/02/17 08:57:10;;;;;;;10.10;3.50;;;19.60;91.30;;;;;;4977785;28;20446;-68
2022/02/17 08:59:37;;;;;;;10.40;3.40;;;19.30;90.10;;;;;;4977710;28;20465;-67
2022/02/17 09:02:06;;;;;;;7.80;3.23;;;19.10;89.60;;;;;;4977135;28;20482;-68
2022/02/17 09:04:33;;;;;;;7.70;2.90;;;19.30;86.90;;;;;;4977645;28;20459;-68
2022/02/17 09:07:00;;;;;;;10.10;3.10;;;19.40;85.70;;;;;;4977571;28;20443;-67
2022/02/17 09:09:27;;;;;;;6.73;2.30;;;19.50;85.10;;;;;;4977130;28;20459;-68
2022/02/17 09:11:54;;;;;;;9.27;3.40;;;19.90;88.60;;;;;;4977401;28;20475;-68
2022/02/17 09:14:21;;;;;;;5.87;2.50;;;20.00;84.90;;;;;;4979446;28;20485;-67
2022/02/17 09:16:47;;;;;;;10.17;3.43;;;19.90;81.50;;;;;;4983345;28;20795;-67
2022/02/17 09:19:16;;;;;;;15.40;2.93;;;20.10;82.90;;;;;;4980301;28;20853;-66
2022/02/17 09:21:42;;;;;;;9.07;3.37;;;20.80;81.70;;;;;;4981867;28;20479;-67
2022/02/17 09:24:09;;;;;;;9.37;3.90;;;20.90;81.50;;;;;;4977628;28;20510;-68
2022/02/17 09:26:36;;;;;;;6.17;2.60;;;20.60;74.40;;;;;;4977134;28;20829;-68
2022/02/17 09:29:03;;;;;;;11.63;3.63;;;20.80;76.90;;;;;;4977240;28;20462;-67
2022/02/17 09:31:30;;;;;;;13.10;3.73;;;20.70;74.30;;;;;;4976713;28;20996;-68
2022/02/17 09:33:57;;;;;;;9.30;3.27;;;20.90;74.20;;;;;;4976956;28;20447;-68
2022/02/17 09:36:26;;;;;;;9.10;2.77;;;20.50;73.60;;;;;;4976858;28;20451;-67
2022/02/17 09:38:54;;;;;;;18.63;3.90;;;20.80;73.30;;;;;;4976619;28;20495;-68
2022/02/17 09:41:21;;;;;;;9.33;3.20;;;20.10;72.80;;;;;;4976710;28;20474;-68
2022/02/17 09:43:49;;;;;;;18.07;3.57;;;19.70;74.00;;;;;;4976648;28;20555;-68
2022/02/17 09:46:20;;;;;;;11.90;4.10;;;19.10;75.10;;;;;;4976746;28;20455;-68
2022/02/17 09:48:55;;;;;;;14.23;4.20;;;17.70;78.30;;;;;;4976626;28;20468;-67
2022/02/17 09:51:23;;;;;;;8.60;3.73;;;16.60;81.00;;;;;;4976587;28;20484;-66
2022/02/17 09:53:51;;;;;;;11.80;3.43;;;16.00;81.30;;;;;;4976582;28;20782;-67
2022/02/17 09:56:18;;;;;;;10.97;3.13;;;15.60;80.50;;;;;;4977825;28;20530;-67
2022/02/17 09:58:45;;;;;;;12.87;3.33;;;15.10;83.70;;;;;;4986997;28;20454;-67
2022/02/17 10:01:17;;;;;;;13.37;4.10;;;15.30;85.30;;;;;;4983453;28;21002;-68
2022/02/17 10:03:43;;;;;;;12.13;3.93;;;15.70;86.70;;;;;;4976328;28;20466;-67
2022/02/17 10:06:12;;;;;;;7.73;3.00;;;16.10;86.70;;;;;;4976243;28;20465;-67
2022/02/17 10:08:39;;;;;;;9.50;3.30;;;17.30;89.30;;;;;;4976368;28;20873;-68
2022/02/17 10:11:09;;;;;;;12.73;4.20;;;18.20;81.60;;;;;;4986190;28;20494;-70
2022/02/17 10:13:36;;;;;;;9.67;3.80;;;18.50;82.40;;;;;;4982375;28;20494;-69
2022/02/17 10:16:04;;;;;;;8.70;3.50;;;19.20;80.10;;;;;;4976123;28;20462;-70
2022/02/17 10:18:39;;;;;;;8.77;3.57;;;19.70;76.30;;;;;;4976501;28;20459;-71
2022/02/17 10:21:07;;;;;;;10.30;3.00;;;19.80;75.00;;;;;;4975365;28;20489;-68
2022/02/17 10:23:37;;;;;;;10.10;3.20;;;20.20;76.30;;;;;;4975843;28;20479;-69
2022/02/17 10:26:08;;;;;;;12.53;3.90;;;20.90;74.20;;;;;;4975747;28;20466;-68
2022/02/17 10:28:37;;;;;;;13.30;3.70;;;20.80;73.00;;;;;;4976915;28;20779;-68
2022/02/17 10:31:04;;;;;;;11.33;4.10;;;20.80;73.00;;;;;;4975868;28;20830;-69
2022/02/17 10:33:42;;;;;;;10.17;3.27;;;20.60;72.90;;;;;;4975845;28;20455;-68
2022/02/17 10:36:10;;;;;;;10.07;3.67;;;20.90;71.70;;;;;;4975944;28;20442;-69
2022/02/17 10:38:36;;;;;;;9.10;2.83;;;21.50;72.90;;;;;;4975988;28;20461;-69
2022/02/17 10:41:04;;;;;;;9.23;3.90;;;21.90;68.00;;;;;;4975619;28;20986;-69
2022/02/17 10:43:33;;;;;;;7.37;2.90;;;22.00;67.70;;;;;;4975644;28;20489;-69
2022/02/17 10:46:06;;;;;;;8.90;3.07;;;21.90;68.60;;;;;;4975506;28;20464;-68
2022/02/17 10:48:33;;;;;;;7.17;2.80;;;20.20;71.30;;;;;;4980165;28;20462;-68
2022/02/17 10:51:08;;;;;;;11.40;3.57;;;19.10;75.60;;;;;;4977039;28;20502;-68
2022/02/17 10:53:40;;;;;;;9.43;3.00;;;18.50;77.30;;;;;;4975653;28;20474;-68
2022/02/17 10:56:08;;;;;;;8.27;4.20;;;17.70;83.50;;;;;;4975491;28;20446;-68
2022/02/17 10:58:43;;;;;;;10.30;3.20;;;16.80;86.70;;;;;;4975404;28;20942;-68
2022/02/17 11:01:11;;;;;;;7.80;3.07;;;16.50;89.50;;;;;;4975377;28;20567;-69
2022/02/17 11:03:39;;;;;;;7.43;2.67;;;16.50;90.90;;;;;;4975504;28;21101;-69
2022/02/17 11:06:07;;;;;;;12.20;3.33;;;16.70;90.20;;;;;;4975530;28;20459;-67
2022/02/17 11:08:33;;;;;;;9.07;3.03;;;16.30;92.90;;;;;;4975223;28;20455;-68
2022/02/17 11:11:00;;;;;;;11.20;2.90;;;15.80;92.60;;;;;;4975311;28;20479;-69
2022/02/17 11:13:30;;;;;;;12.13;3.50;;;16.00;95.60;;;;;;4975874;28;20470;-67
2022/02/17 11:16:00;;;;;;;11.63;3.20;;;15.90;94.90;;;;;;4980769;28;20455;-68
2022/02/17 11:18:27;;;;;;;8.00;2.93;;;15.80;93.20;;;;;;4978928;28;20439;-68
2022/02/17 11:20:55;;;;;;;4.33;2.30;;;16.00;92.30;;;;;;4981048;28;20986;-69
2022/02/17 11:23:30;;;;;;;7.13;2.50;;;16.20;92.40;;;;;;4979901;28;20475;-68
2022/02/17 11:25:57;;;;;;;9.87;2.47;;;16.40;92.00;;;;;;4975358;28;20858;-66
2022/02/17 11:28:32;;;;;;;15.37;3.13;;;16.40;87.50;;;;;;4975473;28;20962;-68
2022/02/17 11:31:03;;;;;;;10.40;3.67;;;16.50;88.20;;;;;;4975632;28;20481;-67
2022/02/17 11:33:32;;;;;;;11.43;2.70;;;16.70;87.20;;;;;;4978104;28;20444;-67
2022/02/17 11:36:30;;;;;;;8.70;2.70;;;16.60;86.20;;;;;;4980989;28;20593;-66
2022/02/17 11:38:58;;;;;;;7.50;3.00;;;16.00;84.50;;;;;;4980094;28;20469;-68
2022/02/17 11:41:28;;;;;;;9.47;3.23;;;15.60;85.00;;;;;;4981062;28;20509;-68
2022/02/17 11:44:13;;;;;;;14.07;3.47;;;15.50;86.20;;;;;;4978731;28;20622;-68
2022/02/17 11:46:54;;;;;;;13.23;3.83;;;15.30;87.00;;;;;;4980835;28;20439;-67
2022/02/17 11:49:51;;;;;;;11.43;3.60;;;15.20;88.10;;;;;;4978816;28;20500;-68
2022/02/17 11:52:21;;;;;;;10.30;3.60;;;15.30;87.50;;;;;;4978861;28;20482;-68
2022/02/17 11:55:23;;;;;;;11.13;3.23;;;15.10;85.40;;;;;;4978480;28;20454;-68
2022/02/17 11:57:49;;;;;;;11.60;3.40;;;15.20;85.70;;;;;;4978179;28;20965;-67
2022/02/17 12:00:35;;;;;;;7.73;3.00;;;15.10;86.60;;;;;;4981889;28;20455;-68
2022/02/17 12:03:02;;;;;;;14.50;4.87;;;15.00;84.30;;;;;;4978698;28;20471;-68
2022/02/17 12:05:30;;;;;;;11.27;3.20;;;15.20;85.40;;;;;;4978453;28;20462;-68
2022/02/17 12:08:24;;;;;;;10.97;3.27;;;15.20;84.80;;;;;;4978019;28;21031;-67
2022/02/17 12:10:54;;;;;;;6.00;2.47;;;15.30;82.40;;;;;;4978553;28;20860;-67
2022/02/17 12:13:26;;;;;;;6.70;2.70;;;15.30;80.50;;;;;;4978223;28;20482;-68
2022/02/17 12:15:53;;;;;;;4.93;2.20;;;15.40;81.30;;;;;;4978356;28;20485;-68
2022/02/17 12:18:20;;;;;;;4.93;2.10;;;15.70;82.30;;;;;;4978083;28;20455;-68
2022/02/17 12:20:47;;;;;;;10.00;2.97;;;15.80;78.40;;;;;;4980804;28;20486;-67
2022/02/17 12:23:18;;;;;;;8.33;2.57;;;15.60;75.50;;;;;;4980837;28;20474;-67
2022/02/17 12:25:47;;;;;;;8.10;2.60;;;15.50;77.80;;;;;;4978954;28;20443;-67
2022/02/17 12:28:16;;;;;;;7.80;2.47;;;15.50;78.90;;;;;;4978174;28;20497;-67
2022/02/17 12:30:46;;;;;;;6.00;2.60;;;15.30;80.30;;;;;;4977811;28;20493;-68
2022/02/17 12:33:15;;;;;;;12.23;3.57;;;15.60;80.90;;;;;;4978391;28;20451;-67
2022/02/17 12:35:45;;;;;;;7.73;2.30;;;15.60;79.30;;;;;;4978094;28;20466;-67
2022/02/17 12:38:14;;;;;;;8.30;2.73;;;15.50;78.60;;;;;;4977952;28;20482;-67
2022/02/17 12:40:43;;;;;;;6.73;2.70;;;15.40;79.70;;;;;;4977878;28;20474;-68
2022/02/17 12:43:12;;;;;;;9.27;2.43;;;15.30;81.30;;;;;;4978109;28;20471;-68
2022/02/17 12:45:45;;;;;;;7.40;2.93;;;15.00;81.60;;;;;;4977116;28;20462;-68
2022/02/17 12:48:14;;;;;;;9.30;3.37;;;14.50;82.50;;;;;;4978012;28;20471;-66
2022/02/17 12:50:42;;;;;;;15.13;3.10;;;14.20;83.40;;;;;;4978181;28;20479;-68
2022/02/17 12:53:09;;;;;;;13.70;3.33;;;14.10;85.10;;;;;;4977810;28;20455;-66
2022/02/17 12:55:43;;;;;;;9.20;3.30;;;14.00;86.60;;;;;;4977823;28;20454;-68
2022/02/17 12:58:13;;;;;;;26.07;4.17;;;13.90;87.00;;;;;;4977792;28;20933;-67
2022/02/17 13:00:43;;;;;;;10.20;4.13;;;13.90;87.60;;;;;;4977503;28;20491;-68
2022/02/17 13:03:10;;;;;;;12.37;3.80;;;13.90;87.20;;;;;;4979482;28;20510;-67
2022/02/17 13:08:38;;;;;;;14.13;3.83;;;14.00;91.30;;;;;;4986793;28;20427;-67
2022/02/17 13:11:05;;;;;;;17.97;4.97;;;13.90;90.00;;;;;;4987496;28;20486;-67
2022/02/17 13:13:33;;;;;;;18.87;5.10;;;13.90;90.70;;;;;;4979953;28;20442;-66
2022/02/17 13:16:00;;;;;;;15.83;5.23;;;13.80;91.20;;;;;;4977558;28;20462;-66
2022/02/17 13:18:27;;;;;;;19.03;6.07;;;13.80;92.50;;;;;;4977205;28;20463;-67
2022/02/17 13:21:08;;;;;;;19.67;5.03;;;13.70;92.10;;;;;;4976809;28;21004;-67
2022/02/17 13:23:34;;;;;;;19.27;4.70;;;13.50;93.10;;;;;;4977285;28;20466;-67
2022/02/17 13:26:01;;;;;;;19.60;5.60;;;13.30;95.30;;;;;;4976904;28;20459;-67
2022/02/17 13:28:28;;;;;;;16.83;5.30;;;13.30;94.70;;;;;;4976898;28;20482;-67
2022/02/17 13:30:56;;;;;;;28.00;6.23;;;13.20;95.70;;;;;;4976652;28;20479;-67
2022/02/17 13:33:27;;;;;;;21.40;5.27;;;13.00;96.80;;;;;;4976503;28;20494;-67
2022/02/17 13:35:56;;;;;;;21.20;6.33;;;12.90;99.60;;;;;;4977159;28;20534;-67
2022/02/17 13:38:27;;;;;;;23.03;4.60;;;12.90;99.90;;;;;;4976760;28;20506;-67
2022/02/17 13:40:56;;;;;;;18.23;4.83;;;13.00;99.90;;;;;;4976191;28;20846;-67
2022/02/17 13:43:23;;;;;;;20.63;4.60;;;13.00;99.30;;;;;;4976077;28;20514;-67
2022/02/17 13:46:03;;;;;;;18.00;4.67;;;13.00;98.20;;;;;;4976640;28;20463;-67
2022/02/17 13:48:33;;;;;;;20.87;5.93;;;13.00;98.20;;;;;;4977133;28;20447;-67
2022/02/17 13:51:03;;;;;;;21.70;5.17;;;13.00;96.80;;;;;;4978257;28;20845;-68
2022/02/17 13:53:36;;;;;;;21.83;5.00;;;13.00;99.90;;;;;;4984235;28;20442;-67
2022/02/17 13:56:05;;;;;;;24.87;5.60;;;13.10;96.80;;;;;;4977385;28;20455;-68
2022/02/17 13:58:33;;;;;;;15.60;4.70;;;13.20;95.80;;;;;;4976078;28;20969;-67
2022/02/17 14:01:01;;;;;;;18.47;4.33;;;13.20;95.10;;;;;;4975863;28;20501;-67
2022/02/17 14:03:30;;;;;;;15.63;4.23;;;13.20;94.20;;;;;;4976105;28;20487;-67
2022/02/17 14:05:59;;;;;;;23.57;4.90;;;13.20;94.40;;;;;;4976449;28;20454;-67
2022/02/17 14:08:27;;;;;;;16.80;4.63;;;13.10;93.90;;;;;;4975584;28;20965;-68
2022/02/17 14:10:54;;;;;;;14.80;3.87;;;13.20;94.50;;;;;;4976058;28;20486;-68
2022/02/17 14:13:21;;;;;;;17.93;4.10;;;13.30;95.70;;;;;;4976189;28;20457;-68
2022/02/17 14:15:48;;;;;;;12.30;4.47;;;13.30;95.20;;;;;;4976110;28;20546;-68
2022/02/17 14:18:17;;;;;;;17.93;4.20;;;13.30;96.60;;;;;;4976039;28;20824;-68
2022/02/17 14:20:45;;;;;;;16.60;5.40;;;13.50;95.40;;;;;;4975906;28;20526;-67
2022/02/17 14:23:12;;;;;;;24.90;4.40;;;13.50;95.10;;;;;;4977196;28;20462;-68
2022/02/17 14:25:39;;;;;;;10.17;3.63;;;13.30;95.50;;;;;;4975410;28;20981;-68
2022/02/17 14:28:05;;;;;;;18.80;5.50;;;13.10;95.50;;;;;;4976595;28;20495;-67
2022/02/17 14:30:32;;;;;;;21.83;4.10;;;13.00;96.10;;;;;;4976769;28;20458;-68
2022/02/17 14:33:00;;;;;;;9.87;3.57;;;12.70;95.20;;;;;;4975820;28;20466;-68
2022/02/17 14:35:28;;;;;;;14.77;4.20;;;12.60;94.60;;;;;;4976647;28;20462;-67
2022/02/17 14:37:54;;;;;;;14.10;3.80;;;12.50;95.20;;;;;;4975649;28;20455;-68
2022/02/17 14:40:21;;;;;;;12.33;3.90;;;12.50;95.90;;;;;;4975726;28;20466;-66
2022/02/17 14:42:50;;;;;;;18.47;4.00;;;12.40;95.20;;;;;;4976033;28;20455;-67
2022/02/17 14:45:18;;;;;;;12.00;3.30;;;12.40;95.60;;;;;;4975581;28;20485;-67
2022/02/17 14:47:47;;;;;;;13.97;3.90;;;12.30;95.40;;;;;;4975637;28;20459;-68
2022/02/17 14:50:13;;;;;;;16.13;3.23;;;12.20;95.20;;;;;;4980145;28;20458;-67
2022/02/17 14:52:41;;;;;;;12.13;3.30;;;12.20;94.90;;;;;;4985039;28;20483;-68
2022/02/17 14:55:09;;;;;;;14.50;4.40;;;12.20;95.10;;;;;;4986154;28;20802;-68
2022/02/17 14:57:36;;;;;;;10.40;3.30;;;12.10;94.70;;;;;;4983555;28;20459;-68
2022/02/17 15:00:04;;;;;;;14.60;4.50;;;12.20;95.10;;;;;;4985595;28;20450;-67
2022/02/17 15:02:31;;;;;;;13.00;3.60;;;12.20;94.20;;;;;;4984398;28;20478;-68
2022/02/17 15:04:57;;;;;;;14.47;3.43;;;12.20;95.30;;;;;;4981498;28;20479;-67
2022/02/17 15:07:24;;;;;;;13.53;4.17;;;12.10;95.00;;;;;;4976516;28;20490;-68
2022/02/17 15:09:52;;;;;;;11.07;3.50;;;12.00;95.20;;;;;;4975755;28;20443;-67
2022/02/17 15:12:19;;;;;;;11.73;3.17;;;12.00;95.50;;;;;;4975739;28;20482;-68
2022/02/17 15:14:46;;;;;;;11.97;3.73;;;12.00;95.80;;;;;;4975728;28;20478;-67
2022/02/17 15:17:13;;;;;;;14.53;3.93;;;11.90;96.90;;;;;;4976536;28;20477;-68
2022/02/17 15:22:25;;;;;;;13.83;3.17;;;11.70;96.20;;;;;;4975384;28;20462;-67
2022/02/17 15:24:53;;;;;;;14.17;3.50;;;11.80;96.90;;;;;;4983357;28;20481;-67
2022/02/17 15:27:20;;;;;;;14.77;3.90;;;11.80;96.20;;;;;;4989597;28;20455;-67
2022/02/17 15:29:47;;;;;;;12.67;3.20;;;11.80;96.20;;;;;;4976893;28;20459;-67
2022/02/17 15:32:14;;;;;;;15.47;3.80;;;11.80;96.20;;;;;;4975326;28;20479;-67
2022/02/17 15:34:40;;;;;;;14.10;4.17;;;11.90;96.20;;;;;;4975233;28;20455;-67
2022/02/17 15:37:07;;;;;;;15.60;4.10;;;12.10;96.50;;;;;;4975104;28;20795;-68
2022/02/17 15:39:35;;;;;;;10.37;3.23;;;12.20;96.20;;;;;;4974681;28;20493;-68
2022/02/17 15:42:04;;;;;;;10.57;2.87;;;12.10;96.40;;;;;;4975081;28;20565;-68
2022/02/17 15:44:35;;;;;;;16.93;3.10;;;12.10;96.50;;;;;;4974899;28;20840;-67
2022/02/17 15:47:03;;;;;;;8.60;2.47;;;12.10;96.40;;;;;;4974410;28;20792;-67
2022/02/17 15:49:30;;;;;;;11.80;2.60;;;11.70;95.20;;;;;;4974719;28;20473;-67
2022/02/17 15:51:57;;;;;;;9.93;2.80;;;11.60;95.50;;;;;;4974737;28;20482;-68
2022/02/17 15:54:24;;;;;;;13.07;3.10;;;11.50;96.70;;;;;;4974314;28;20458;-67
2022/02/17 15:56:51;;;;;;;13.87;3.53;;;11.50;96.90;;;;;;4974611;28;20470;-67
2022/02/17 15:59:19;;;;;;;10.47;3.43;;;11.50;96.50;;;;;;4974776;28;20459;-67
2022/02/17 16:01:46;;;;;;;24.43;3.53;;;11.50;96.60;;;;;;4975279;28;20490;-66
2022/02/17 16:04:13;;;;;;;13.03;3.50;;;11.50;97.50;;;;;;4977556;28;20485;-67
2022/02/17 16:06:41;;;;;;;11.57;3.47;;;11.50;97.60;;;;;;4976399;28;20458;-67
2022/02/17 16:09:08;;;;;;;22.53;3.23;;;11.50;97.30;;;;;;4975391;28;20490;-68
2022/02/17 16:11:36;;;;;;;8.13;3.33;;;11.50;96.90;;;;;;4974785;28;20479;-68
2022/02/17 16:14:03;;;;;;;12.50;3.83;;;11.50;96.80;;;;;;4974727;28;20451;-68
2022/02/17 16:16:31;;;;;;;9.20;3.20;;;11.40;96.70;;;;;;4974709;28;20483;-67
2022/02/17 16:18:58;;;;;;;8.47;3.10;;;11.40;97.40;;;;;;4983175;28;20517;-68
2022/02/17 16:21:24;;;;;;;11.50;3.03;;;11.30;98.20;;;;;;4987746;28;20470;-68
2022/02/17 16:23:51;;;;;;;12.50;3.40;;;11.30;99.30;;;;;;4985498;28;20934;-67
2022/02/17 16:26:18;;;;;;;15.90;4.00;;;11.20;99.90;;;;;;4978688;28;20502;-67
2022/02/17 16:28:45;;;;;;;16.10;4.20;;;11.10;99.90;;;;;;4977714;28;20458;-67
2022/02/17 16:31:12;;;;;;;10.30;2.97;;;11.00;99.90;;;;;;4979501;28;20483;-67
2022/02/17 16:33:40;;;;;;;18.00;4.00;;;10.90;99.90;;;;;;4977653;28;20459;-68
2022/02/17 16:36:07;;;;;;;11.30;3.17;;;10.80;99.90;;;;;;4977906;28;20454;-68
2022/02/17 16:38:35;;;;;;;19.30;5.53;;;10.80;99.90;;;;;;4977865;28;20930;-68
2022/02/17 16:41:02;;;;;;;13.87;4.80;;;10.70;99.90;;;;;;4977820;28;20478;-67
2022/02/17 16:43:29;;;;;;;15.27;3.13;;;10.70;99.90;;;;;;4977687;28;20462;-67
2022/02/17 16:45:57;;;;;;;14.67;3.70;;;10.60;99.90;;;;;;4977590;28;21021;-68
2022/02/17 16:48:24;;;;;;;14.07;3.40;;;10.60;99.90;;;;;;4977569;28;20969;-68
2022/02/17 16:50:52;;;;;;;12.60;3.80;;;10.60;99.90;;;;;;4979195;28;20475;-67
2022/02/17 16:53:19;;;;;;;17.60;5.37;;;10.60;99.90;;;;;;4977876;28;20455;-67
2022/02/17 16:55:48;;;;;;;23.20;4.50;;;10.50;99.90;;;;;;4978209;28;20447;-68
2022/02/17 16:58:14;;;;;;;10.43;2.90;;;10.50;99.90;;;;;;4990649;28;20455;-68
2022/02/17 17:00:42;;;;;;;18.17;3.43;;;10.50;99.90;;;;;;4986273;28;20495;-67
2022/02/17 17:03:09;;;;;;;14.57;3.77;;;10.50;99.90;;;;;;4977932;28;20541;-67
2022/02/17 17:05:36;;;;;;;15.43;3.60;;;10.50;99.90;;;;;;4980354;28;20501;-68
2022/02/17 17:08:07;;;;;;;13.53;3.90;;;10.50;99.90;;;;;;4979466;28;20533;-68
2022/02/17 17:10:34;;;;;;;13.87;4.30;;;10.50;99.90;;;;;;4977997;28;20528;-67
2022/02/17 17:13:01;;;;;;;17.23;5.20;;;10.40;99.90;;;;;;4980821;28;20526;-67
2022/02/17 17:15:28;;;;;;;16.70;5.30;;;10.40;99.90;;;;;;4980137;28;20531;-67
2022/02/17 17:17:55;;;;;;;19.47;4.83;;;10.30;99.90;;;;;;4980431;28;20531;-67
2022/02/17 17:20:22;;;;;;;13.57;3.83;;;10.30;99.90;;;;;;4979982;28;20459;-67
2022/02/17 17:22:50;;;;;;;16.73;4.77;;;10.30;99.90;;;;;;4977732;28;20459;-67
2022/02/17 17:25:18;;;;;;;17.43;4.53;;;10.30;99.90;;;;;;4978050;28;20479;-67
2022/02/17 17:27:45;;;;;;;16.80;4.77;;;10.30;99.90;;;;;;4977325;28;20458;-68
2022/02/17 17:30:13;;;;;;;16.97;5.07;;;10.20;99.90;;;;;;4977123;28;20459;-68
2022/02/17 17:32:40;;;;;;;15.50;4.87;;;10.30;99.90;;;;;;4977623;28;20485;-67
2022/02/17 17:35:07;;;;;;;14.07;4.70;;;10.20;99.90;;;;;;4976920;28;20459;-67
2022/02/17 17:37:34;;;;;;;12.43;3.97;;;10.30;99.90;;;;;;4976686;28;20459;-67
2022/02/17 17:40:01;;;;;;;13.57;5.23;;;10.20;99.90;;;;;;4976820;28;20455;-67
2022/02/17 17:42:29;;;;;;;17.60;4.93;;;10.20;99.90;;;;;;4976983;28;20545;-67
2022/02/17 17:47:40;;;;;;;16.97;3.93;;;10.20;99.90;;;;;;4976484;28;20918;-67
2022/02/17 17:50:08;;;;;;;18.90;5.20;;;10.20;99.90;;;;;;4977116;28;20463;-67
2022/02/17 17:52:34;;;;;;;13.77;4.60;;;10.20;99.90;;;;;;4976748;28;20479;-67
2022/02/17 17:55:01;;;;;;;16.87;5.60;;;10.20;99.90;;;;;;4977396;28;20458;-67